sensor_id;sensor_type;location;lat;lon;timestamp;temperature;humidity
7163;DHT22;3623;47.098;15.446;2024-01-27T00:02:04;7.90;89.00
7163;DHT22;3623;47.098;15.446;2024-01-27T00:04:31;7.90;88.60
7163;DHT22;3623;47.098;15.446;2024-01-27T00:06:58;7.80;88.50
7163;DHT22;3623;47.098;15.446;2024-01-27T00:09:25;7.80;89.00
7163;DHT22;3623;47.098;15.446;2024-01-27T00:11:52;7.60;88.30
7163;DHT22;3623;47.098;15.446;2024-01-27T00:14:21;7.70;88.80
7163;DHT22;3623;47.098;15.446;2024-01-27T00:16:48;7.50;88.60
7163;DHT22;3623;47.098;15.446;2024-01-27T00:19:15;7.60;89.00
7163;DHT22;3623;47.098;15.446;2024-01-27T00:21:42;7.50;89.70
7163;DHT22;3623;47.098;15.446;2024-01-27T00:24:09;7.40;89.80
7163;DHT22;3623;47.098;15.446;2024-01-27T00:26:36;7.30;90.00
7163;DHT22;3623;47.098;15.446;2024-01-27T00:29:03;7.30;88.30
7163;DHT22;3623;47.098;15.446;2024-01-27T00:31:32;7.20;89.00
7163;DHT22;3623;47.098;15.446;2024-01-27T00:33:59;7.30;90.10
7163;DHT22;3623;47.098;15.446;2024-01-27T00:36:27;7.50;88.60
7163;DHT22;3623;47.098;15.446;2024-01-27T00:38:54;7.40;87.70
7163;DHT22;3623;47.098;15.446;2024-01-27T00:41:21;7.40;88.20
7163;DHT22;3623;47.098;15.446;2024-01-27T00:43:48;7.40;88.70
7163;DHT22;3623;47.098;15.446;2024-01-27T00:46:15;7.30;88.60
7163;DHT22;3623;47.098;15.446;2024-01-27T00:48:44;7.20;89.30
7163;DHT22;3623;47.098;15.446;2024-01-27T00:51:11;7.20;88.70
7163;DHT22;3623;47.098;15.446;2024-01-27T00:53:38;7.30;88.50
7163;DHT22;3623;47.098;15.446;2024-01-27T00:56:06;7.40;87.90
7163;DHT22;3623;47.098;15.446;2024-01-27T00:58:33;7.20;88.40
7163;DHT22;3623;47.098;15.446;2024-01-27T01:01:00;7.20;86.80
7163;DHT22;3623;47.098;15.446;2024-01-27T01:03:29;7.20;87.80
7163;DHT22;3623;47.098;15.446;2024-01-27T01:05:57;7.20;87.60
7163;DHT22;3623;47.098;15.446;2024-01-27T01:08:24;7.30;87.90
7163;DHT22;3623;47.098;15.446;2024-01-27T01:10:51;7.20;86.40
7163;DHT22;3623;47.098;15.446;2024-01-27T01:13:18;7.40;87.00
7163;DHT22;3623;47.098;15.446;2024-01-27T01:15:46;7.30;85.00
7163;DHT22;3623;47.098;15.446;2024-01-27T01:18:13;7.30;86.40
7163;DHT22;3623;47.098;15.446;2024-01-27T01:20:40;7.40;84.40
7163;DHT22;3623;47.098;15.446;2024-01-27T01:23:08;7.30;85.70
7163;DHT22;3623;47.098;15.446;2024-01-27T01:25:35;7.50;86.30
7163;DHT22;3623;47.098;15.446;2024-01-27T01:28:03;7.20;85.10
7163;DHT22;3623;47.098;15.446;2024-01-27T01:30:30;7.20;84.70
7163;DHT22;3623;47.098;15.446;2024-01-27T01:32:57;7.20;86.90
7163;DHT22;3623;47.098;15.446;2024-01-27T01:35:24;7.20;86.20
7163;DHT22;3623;47.098;15.446;2024-01-27T01:37:51;7.20;86.20
7163;DHT22;3623;47.098;15.446;2024-01-27T01:40:19;7.10;86.40
7163;DHT22;3623;47.098;15.446;2024-01-27T01:42:50;6.90;85.40
7163;DHT22;3623;47.098;15.446;2024-01-27T01:45:18;7.20;83.50
7163;DHT22;3623;47.098;15.446;2024-01-27T01:47:46;7.20;84.40
7163;DHT22;3623;47.098;15.446;2024-01-27T01:50:13;7.20;83.20
7163;DHT22;3623;47.098;15.446;2024-01-27T01:52:40;7.30;83.70
7163;DHT22;3623;47.098;15.446;2024-01-27T01:55:08;7.40;83.50
7163;DHT22;3623;47.098;15.446;2024-01-27T01:57:37;7.30;83.40
7163;DHT22;3623;47.098;15.446;2024-01-27T02:00:05;7.30;83.40
7163;DHT22;3623;47.098;15.446;2024-01-27T02:02:33;7.20;82.80
7163;DHT22;3623;47.098;15.446;2024-01-27T02:05:00;7.30;83.20
7163;DHT22;3623;47.098;15.446;2024-01-27T02:07:27;7.30;82.60
7163;DHT22;3623;47.098;15.446;2024-01-27T02:09:54;7.20;82.60
7163;DHT22;3623;47.098;15.446;2024-01-27T02:12:21;7.30;81.90
7163;DHT22;3623;47.098;15.446;2024-01-27T02:14:50;7.10;82.40
7163;DHT22;3623;47.098;15.446;2024-01-27T02:17:17;7.30;81.50
7163;DHT22;3623;47.098;15.446;2024-01-27T02:19:44;7.30;82.30
7163;DHT22;3623;47.098;15.446;2024-01-27T02:22:11;7.20;82.00
7163;DHT22;3623;47.098;15.446;2024-01-27T02:24:40;7.00;82.30
7163;DHT22;3623;47.098;15.446;2024-01-27T02:27:07;7.20;81.90
7163;DHT22;3623;47.098;15.446;2024-01-27T02:29:34;7.20;81.70
7163;DHT22;3623;47.098;15.446;2024-01-27T02:32:01;7.10;82.00
7163;DHT22;3623;47.098;15.446;2024-01-27T02:34:28;7.00;82.30
7163;DHT22;3623;47.098;15.446;2024-01-27T02:36:55;6.80;81.50
7163;DHT22;3623;47.098;15.446;2024-01-27T02:39:22;7.00;82.10
7163;DHT22;3623;47.098;15.446;2024-01-27T02:41:50;6.90;82.80
7163;DHT22;3623;47.098;15.446;2024-01-27T02:44:17;7.00;81.70
7163;DHT22;3623;47.098;15.446;2024-01-27T02:46:44;7.00;82.10
7163;DHT22;3623;47.098;15.446;2024-01-27T02:49:12;7.00;81.20
7163;DHT22;3623;47.098;15.446;2024-01-27T02:51:39;6.90;81.00
7163;DHT22;3623;47.098;15.446;2024-01-27T02:54:06;6.80;82.10
7163;DHT22;3623;47.098;15.446;2024-01-27T02:56:33;6.80;82.00
7163;DHT22;3623;47.098;15.446;2024-01-27T02:59:01;6.60;82.60
7163;DHT22;3623;47.098;15.446;2024-01-27T03:01:28;6.90;82.40
7163;DHT22;3623;47.098;15.446;2024-01-27T03:03:55;6.60;82.10
7163;DHT22;3623;47.098;15.446;2024-01-27T03:06:23;6.60;82.70
7163;DHT22;3623;47.098;15.446;2024-01-27T03:08:50;6.60;82.30
7163;DHT22;3623;47.098;15.446;2024-01-27T03:11:17;6.70;82.90
7163;DHT22;3623;47.098;15.446;2024-01-27T03:13:44;6.60;82.70
7163;DHT22;3623;47.098;15.446;2024-01-27T03:16:13;6.60;83.00
7163;DHT22;3623;47.098;15.446;2024-01-27T03:18:40;6.50;83.40
7163;DHT22;3623;47.098;15.446;2024-01-27T03:21:07;6.40;83.60
7163;DHT22;3623;47.098;15.446;2024-01-27T03:23:34;6.50;83.50
7163;DHT22;3623;47.098;15.446;2024-01-27T03:26:02;6.30;83.50
7163;DHT22;3623;47.098;15.446;2024-01-27T03:28:30;6.30;83.80
7163;DHT22;3623;47.098;15.446;2024-01-27T03:30:57;6.30;83.60
7163;DHT22;3623;47.098;15.446;2024-01-27T03:33:27;6.50;84.30
7163;DHT22;3623;47.098;15.446;2024-01-27T03:35:56;6.40;84.30
7163;DHT22;3623;47.098;15.446;2024-01-27T03:38:23;6.30;84.00
7163;DHT22;3623;47.098;15.446;2024-01-27T03:40:50;6.40;84.60
7163;DHT22;3623;47.098;15.446;2024-01-27T03:43:18;6.40;83.80
7163;DHT22;3623;47.098;15.446;2024-01-27T03:45:45;6.60;84.50
7163;DHT22;3623;47.098;15.446;2024-01-27T03:48:12;6.40;84.10
7163;DHT22;3623;47.098;15.446;2024-01-27T03:50:40;6.40;84.40
7163;DHT22;3623;47.098;15.446;2024-01-27T03:53:08;6.40;84.50
7163;DHT22;3623;47.098;15.446;2024-01-27T03:55:35;6.40;83.90
7163;DHT22;3623;47.098;15.446;2024-01-27T03:58:02;6.50;85.00
7163;DHT22;3623;47.098;15.446;2024-01-27T04:00:29;6.30;84.30
7163;DHT22;3623;47.098;15.446;2024-01-27T04:02:58;6.50;85.00
7163;DHT22;3623;47.098;15.446;2024-01-27T04:05:26;6.40;84.70
7163;DHT22;3623;47.098;15.446;2024-01-27T04:07:55;6.40;84.70
7163;DHT22;3623;47.098;15.446;2024-01-27T04:10:23;6.30;85.10
7163;DHT22;3623;47.098;15.446;2024-01-27T04:12:50;6.30;84.70
7163;DHT22;3623;47.098;15.446;2024-01-27T04:15:17;6.30;85.50
7163;DHT22;3623;47.098;15.446;2024-01-27T04:17:44;6.00;85.20
7163;DHT22;3623;47.098;15.446;2024-01-27T04:20:11;6.10;86.40
7163;DHT22;3623;47.098;15.446;2024-01-27T04:22:38;6.00;85.80
7163;DHT22;3623;47.098;15.446;2024-01-27T04:25:08;6.00;86.10
7163;DHT22;3623;47.098;15.446;2024-01-27T04:27:37;5.70;86.60
7163;DHT22;3623;47.098;15.446;2024-01-27T04:30:06;6.00;85.90
7163;DHT22;3623;47.098;15.446;2024-01-27T04:32:35;6.00;85.50
7163;DHT22;3623;47.098;15.446;2024-01-27T04:35:02;6.00;85.50
7163;DHT22;3623;47.098;15.446;2024-01-27T04:37:30;6.00;85.80
7163;DHT22;3623;47.098;15.446;2024-01-27T04:39:57;5.80;86.50
7163;DHT22;3623;47.098;15.446;2024-01-27T04:42:25;5.80;87.00
7163;DHT22;3623;47.098;15.446;2024-01-27T04:44:53;5.70;87.30
7163;DHT22;3623;47.098;15.446;2024-01-27T04:47:20;5.70;87.10
7163;DHT22;3623;47.098;15.446;2024-01-27T04:49:47;5.90;87.40
7163;DHT22;3623;47.098;15.446;2024-01-27T04:52:14;6.00;86.40
7163;DHT22;3623;47.098;15.446;2024-01-27T04:54:42;6.20;86.40
7163;DHT22;3623;47.098;15.446;2024-01-27T04:57:09;6.20;86.50
7163;DHT22;3623;47.098;15.446;2024-01-27T04:59:37;5.90;86.10
7163;DHT22;3623;47.098;15.446;2024-01-27T05:02:05;5.90;86.60
7163;DHT22;3623;47.098;15.446;2024-01-27T05:04:32;5.80;87.40
7163;DHT22;3623;47.098;15.446;2024-01-27T05:06:59;5.70;86.90
7163;DHT22;3623;47.098;15.446;2024-01-27T05:09:26;5.80;87.30
7163;DHT22;3623;47.098;15.446;2024-01-27T05:11:54;5.70;87.10
7163;DHT22;3623;47.098;15.446;2024-01-27T05:14:21;5.90;86.90
7163;DHT22;3623;47.098;15.446;2024-01-27T05:16:49;6.10;86.80
7163;DHT22;3623;47.098;15.446;2024-01-27T05:19:16;6.10;87.10
7163;DHT22;3623;47.098;15.446;2024-01-27T05:21:44;6.10;86.70
7163;DHT22;3623;47.098;15.446;2024-01-27T05:24:11;6.00;87.40
7163;DHT22;3623;47.098;15.446;2024-01-27T05:26:38;5.90;87.30
7163;DHT22;3623;47.098;15.446;2024-01-27T05:29:05;5.80;86.80
7163;DHT22;3623;47.098;15.446;2024-01-27T05:31:33;5.70;87.40
7163;DHT22;3623;47.098;15.446;2024-01-27T05:34:01;5.50;87.00
7163;DHT22;3623;47.098;15.446;2024-01-27T05:36:28;5.50;87.00
7163;DHT22;3623;47.098;15.446;2024-01-27T05:38:56;5.50;88.00
7163;DHT22;3623;47.098;15.446;2024-01-27T05:41:26;5.60;87.70
7163;DHT22;3623;47.098;15.446;2024-01-27T05:43:54;5.50;87.50
7163;DHT22;3623;47.098;15.446;2024-01-27T05:46:23;5.50;88.00
7163;DHT22;3623;47.098;15.446;2024-01-27T05:48:51;5.50;87.60
7163;DHT22;3623;47.098;15.446;2024-01-27T05:51:22;5.60;88.00
7163;DHT22;3623;47.098;15.446;2024-01-27T05:53:49;5.60;87.40
7163;DHT22;3623;47.098;15.446;2024-01-27T05:56:17;5.50;87.70
7163;DHT22;3623;47.098;15.446;2024-01-27T05:58:45;5.70;87.70
7163;DHT22;3623;47.098;15.446;2024-01-27T06:01:12;5.90;87.50
7163;DHT22;3623;47.098;15.446;2024-01-27T06:03:41;6.00;86.00
7163;DHT22;3623;47.098;15.446;2024-01-27T06:06:09;6.00;86.70
7163;DHT22;3623;47.098;15.446;2024-01-27T06:08:37;6.00;86.50
7163;DHT22;3623;47.098;15.446;2024-01-27T06:11:04;6.00;86.60
7163;DHT22;3623;47.098;15.446;2024-01-27T06:13:31;6.00;86.80
7163;DHT22;3623;47.098;15.446;2024-01-27T06:16:00;6.00;86.60
7163;DHT22;3623;47.098;15.446;2024-01-27T06:18:27;6.00;86.10
7163;DHT22;3623;47.098;15.446;2024-01-27T06:20:54;6.10;85.30
7163;DHT22;3623;47.098;15.446;2024-01-27T06:23:21;6.10;86.00
7163;DHT22;3623;47.098;15.446;2024-01-27T06:25:50;6.10;85.40
7163;DHT22;3623;47.098;15.446;2024-01-27T06:28:17;6.10;85.60
7163;DHT22;3623;47.098;15.446;2024-01-27T06:30:44;6.00;85.20
7163;DHT22;3623;47.098;15.446;2024-01-27T06:33:11;6.10;85.20
7163;DHT22;3623;47.098;15.446;2024-01-27T06:35:39;6.10;85.60
7163;DHT22;3623;47.098;15.446;2024-01-27T06:38:06;6.10;85.50
7163;DHT22;3623;47.098;15.446;2024-01-27T06:40:33;6.20;84.80
7163;DHT22;3623;47.098;15.446;2024-01-27T06:43:01;6.20;84.90
7163;DHT22;3623;47.098;15.446;2024-01-27T06:45:28;6.20;85.60
7163;DHT22;3623;47.098;15.446;2024-01-27T06:47:56;6.10;83.80
7163;DHT22;3623;47.098;15.446;2024-01-27T06:50:23;6.20;84.90
7163;DHT22;3623;47.098;15.446;2024-01-27T06:52:50;6.20;84.30
7163;DHT22;3623;47.098;15.446;2024-01-27T06:55:18;6.20;85.50
7163;DHT22;3623;47.098;15.446;2024-01-27T06:57:45;6.00;85.80
7163;DHT22;3623;47.098;15.446;2024-01-27T07:00:14;5.90;85.80
7163;DHT22;3623;47.098;15.446;2024-01-27T07:02:41;6.00;84.30
7163;DHT22;3623;47.098;15.446;2024-01-27T07:05:09;5.70;85.20
7163;DHT22;3623;47.098;15.446;2024-01-27T07:07:36;5.90;84.30
7163;DHT22;3623;47.098;15.446;2024-01-27T07:10:03;6.00;85.20
7163;DHT22;3623;47.098;15.446;2024-01-27T07:12:33;6.00;85.10
7163;DHT22;3623;47.098;15.446;2024-01-27T07:15:02;5.90;85.90
7163;DHT22;3623;47.098;15.446;2024-01-27T07:17:31;5.80;84.70
7163;DHT22;3623;47.098;15.446;2024-01-27T07:19:58;5.70;84.60
7163;DHT22;3623;47.098;15.446;2024-01-27T07:22:25;5.90;85.30
7163;DHT22;3623;47.098;15.446;2024-01-27T07:24:52;5.80;86.10
7163;DHT22;3623;47.098;15.446;2024-01-27T07:27:19;5.60;85.30
7163;DHT22;3623;47.098;15.446;2024-01-27T07:29:46;5.80;85.30
7163;DHT22;3623;47.098;15.446;2024-01-27T07:32:14;5.80;85.20
7163;DHT22;3623;47.098;15.446;2024-01-27T07:34:43;5.90;84.70
7163;DHT22;3623;47.098;15.446;2024-01-27T07:37:10;5.90;85.50
7163;DHT22;3623;47.098;15.446;2024-01-27T07:39:38;5.80;86.60
7163;DHT22;3623;47.098;15.446;2024-01-27T07:42:05;5.70;86.10
7163;DHT22;3623;47.098;15.446;2024-01-27T07:44:32;5.70;85.70
7163;DHT22;3623;47.098;15.446;2024-01-27T07:46:59;5.70;86.90
7163;DHT22;3623;47.098;15.446;2024-01-27T07:49:27;5.70;87.00
7163;DHT22;3623;47.098;15.446;2024-01-27T07:51:55;5.70;86.40
7163;DHT22;3623;47.098;15.446;2024-01-27T07:54:22;5.80;85.50
7163;DHT22;3623;47.098;15.446;2024-01-27T07:56:50;5.90;85.50
7163;DHT22;3623;47.098;15.446;2024-01-27T07:59:17;5.80;85.10
7163;DHT22;3623;47.098;15.446;2024-01-27T08:01:45;5.90;85.00
7163;DHT22;3623;47.098;15.446;2024-01-27T08:04:12;6.00;84.40
7163;DHT22;3623;47.098;15.446;2024-01-27T08:06:48;6.10;83.80
7163;DHT22;3623;47.098;15.446;2024-01-27T08:09:17;6.20;83.50
7163;DHT22;3623;47.098;15.446;2024-01-27T08:11:45;6.20;83.50
7163;DHT22;3623;47.098;15.446;2024-01-27T08:14:17;6.10;82.20
7163;DHT22;3623;47.098;15.446;2024-01-27T08:16:44;6.30;83.00
7163;DHT22;3623;47.098;15.446;2024-01-27T08:19:11;6.40;83.00
7163;DHT22;3623;47.098;15.446;2024-01-27T08:21:38;6.40;81.80
7163;DHT22;3623;47.098;15.446;2024-01-27T08:24:06;6.50;82.20
7163;DHT22;3623;47.098;15.446;2024-01-27T08:26:34;6.70;82.40
7163;DHT22;3623;47.098;15.446;2024-01-27T08:29:00;6.70;82.90
7163;DHT22;3623;47.098;15.446;2024-01-27T08:31:28;6.70;81.70
7163;DHT22;3623;47.098;15.446;2024-01-27T08:33:55;6.60;80.40
7163;DHT22;3623;47.098;15.446;2024-01-27T08:36:22;6.70;82.20
7163;DHT22;3623;47.098;15.446;2024-01-27T08:38:50;6.90;81.70
7163;DHT22;3623;47.098;15.446;2024-01-27T08:41:17;7.40;81.00
7163;DHT22;3623;47.098;15.446;2024-01-27T08:43:46;7.80;78.60
7163;DHT22;3623;47.098;15.446;2024-01-27T08:46:13;7.70;79.20
7163;DHT22;3623;47.098;15.446;2024-01-27T08:48:42;7.90;79.40
7163;DHT22;3623;47.098;15.446;2024-01-27T08:51:09;7.90;78.80
7163;DHT22;3623;47.098;15.446;2024-01-27T08:53:37;8.10;77.60
7163;DHT22;3623;47.098;15.446;2024-01-27T08:56:05;8.20;78.80
7163;DHT22;3623;47.098;15.446;2024-01-27T08:58:32;8.10;78.70
7163;DHT22;3623;47.098;15.446;2024-01-27T09:01:00;8.10;77.70
7163;DHT22;3623;47.098;15.446;2024-01-27T09:03:31;8.20;77.00
7163;DHT22;3623;47.098;15.446;2024-01-27T09:05:58;8.30;77.70
7163;DHT22;3623;47.098;15.446;2024-01-27T09:08:25;8.20;78.10
7163;DHT22;3623;47.098;15.446;2024-01-27T09:10:52;8.20;76.70
7163;DHT22;3623;47.098;15.446;2024-01-27T09:13:19;8.30;76.10
7163;DHT22;3623;47.098;15.446;2024-01-27T09:15:46;8.40;78.20
7163;DHT22;3623;47.098;15.446;2024-01-27T09:18:15;8.50;80.40
7163;DHT22;3623;47.098;15.446;2024-01-27T09:20:43;8.60;80.90
7163;DHT22;3623;47.098;15.446;2024-01-27T09:23:10;8.80;80.30
7163;DHT22;3623;47.098;15.446;2024-01-27T09:25:38;8.90;79.20
7163;DHT22;3623;47.098;15.446;2024-01-27T09:28:05;8.90;78.40
7163;DHT22;3623;47.098;15.446;2024-01-27T09:30:32;9.10;79.20
7163;DHT22;3623;47.098;15.446;2024-01-27T09:32:59;9.40;76.40
7163;DHT22;3623;47.098;15.446;2024-01-27T09:35:28;10.20;73.70
7163;DHT22;3623;47.098;15.446;2024-01-27T09:37:55;9.60;73.40
7163;DHT22;3623;47.098;15.446;2024-01-27T09:40:22;9.50;73.50
7163;DHT22;3623;47.098;15.446;2024-01-27T09:42:51;9.60;74.40
7163;DHT22;3623;47.098;15.446;2024-01-27T09:45:19;9.80;76.20
7163;DHT22;3623;47.098;15.446;2024-01-27T09:47:48;10.30;72.70
7163;DHT22;3623;47.098;15.446;2024-01-27T09:50:17;10.50;67.70
7163;DHT22;3623;47.098;15.446;2024-01-27T09:52:46;10.20;68.50
7163;DHT22;3623;47.098;15.446;2024-01-27T09:55:13;9.80;71.50
7163;DHT22;3623;47.098;15.446;2024-01-27T09:57:41;9.80;73.80
7163;DHT22;3623;47.098;15.446;2024-01-27T10:00:12;9.70;71.00
7163;DHT22;3623;47.098;15.446;2024-01-27T10:02:39;9.90;70.80
7163;DHT22;3623;47.098;15.446;2024-01-27T10:05:08;10.10;71.90
7163;DHT22;3623;47.098;15.446;2024-01-27T10:07:36;10.50;69.90
7163;DHT22;3623;47.098;15.446;2024-01-27T10:10:05;10.80;66.30
7163;DHT22;3623;47.098;15.446;2024-01-27T10:12:33;10.70;66.50
7163;DHT22;3623;47.098;15.446;2024-01-27T10:15:05;10.70;66.00
7163;DHT22;3623;47.098;15.446;2024-01-27T10:17:32;11.10;68.10
7163;DHT22;3623;47.098;15.446;2024-01-27T10:20:02;11.30;65.30
7163;DHT22;3623;47.098;15.446;2024-01-27T10:22:37;11.60;66.40
7163;DHT22;3623;47.098;15.446;2024-01-27T10:25:07;11.70;64.90
7163;DHT22;3623;47.098;15.446;2024-01-27T10:27:35;11.70;63.80
7163;DHT22;3623;47.098;15.446;2024-01-27T10:30:02;11.80;63.10
7163;DHT22;3623;47.098;15.446;2024-01-27T10:32:30;12.10;62.40
7163;DHT22;3623;47.098;15.446;2024-01-27T10:35:04;12.50;62.40
7163;DHT22;3623;47.098;15.446;2024-01-27T10:37:31;12.40;61.50
7163;DHT22;3623;47.098;15.446;2024-01-27T10:40:03;11.70;60.90
7163;DHT22;3623;47.098;15.446;2024-01-27T10:42:31;11.60;61.20
7163;DHT22;3623;47.098;15.446;2024-01-27T10:44:59;11.60;63.60
7163;DHT22;3623;47.098;15.446;2024-01-27T10:47:27;11.90;63.00
7163;DHT22;3623;47.098;15.446;2024-01-27T10:49:55;12.20;63.00
7163;DHT22;3623;47.098;15.446;2024-01-27T10:52:24;12.60;60.60
7163;DHT22;3623;47.098;15.446;2024-01-27T10:54:58;12.60;61.30
7163;DHT22;3623;47.098;15.446;2024-01-27T10:57:26;12.60;59.30
7163;DHT22;3623;47.098;15.446;2024-01-27T10:59:56;13.00;59.60
7163;DHT22;3623;47.098;15.446;2024-01-27T11:02:24;13.20;60.00
7163;DHT22;3623;47.098;15.446;2024-01-27T11:04:52;14.10;60.00
7163;DHT22;3623;47.098;15.446;2024-01-27T11:07:20;13.90;58.40
7163;DHT22;3623;47.098;15.446;2024-01-27T11:09:49;14.30;58.80
7163;DHT22;3623;47.098;15.446;2024-01-27T11:12:18;15.30;58.60
7163;DHT22;3623;47.098;15.446;2024-01-27T11:14:47;15.90;58.90
7163;DHT22;3623;47.098;15.446;2024-01-27T11:17:16;15.60;57.80
7163;DHT22;3623;47.098;15.446;2024-01-27T11:19:44;15.80;56.20
7163;DHT22;3623;47.098;15.446;2024-01-27T11:22:24;15.30;57.10
7163;DHT22;3623;47.098;15.446;2024-01-27T11:24:52;15.40;57.30
7163;DHT22;3623;47.098;15.446;2024-01-27T11:27:26;16.10;55.00
7163;DHT22;3623;47.098;15.446;2024-01-27T11:29:55;15.90;54.50
7163;DHT22;3623;47.098;15.446;2024-01-27T11:32:23;16.40;55.10
7163;DHT22;3623;47.098;15.446;2024-01-27T11:34:52;16.30;54.40
7163;DHT22;3623;47.098;15.446;2024-01-27T11:37:20;16.90;55.00
7163;DHT22;3623;47.098;15.446;2024-01-27T11:39:51;16.90;53.60
7163;DHT22;3623;47.098;15.446;2024-01-27T11:42:19;17.50;53.70
7163;DHT22;3623;47.098;15.446;2024-01-27T11:44:46;17.60;54.20
7163;DHT22;3623;47.098;15.446;2024-01-27T11:47:15;16.60;53.40
7163;DHT22;3623;47.098;15.446;2024-01-27T11:49:50;17.00;51.90
7163;DHT22;3623;47.098;15.446;2024-01-27T11:52:17;17.80;53.40
7163;DHT22;3623;47.098;15.446;2024-01-27T11:54:45;18.50;53.40
7163;DHT22;3623;47.098;15.446;2024-01-27T11:57:12;18.50;51.00
7163;DHT22;3623;47.098;15.446;2024-01-27T11:59:39;18.30;51.40
7163;DHT22;3623;47.098;15.446;2024-01-27T12:02:06;18.10;51.50
7163;DHT22;3623;47.098;15.446;2024-01-27T12:04:34;19.10;52.00
7163;DHT22;3623;47.098;15.446;2024-01-27T12:07:03;19.30;51.20
7163;DHT22;3623;47.098;15.446;2024-01-27T12:09:30;19.90;50.50
7163;DHT22;3623;47.098;15.446;2024-01-27T12:11:58;19.00;50.90
7163;DHT22;3623;47.098;15.446;2024-01-27T12:14:25;19.40;50.00
7163;DHT22;3623;47.098;15.446;2024-01-27T12:16:52;19.40;50.00
7163;DHT22;3623;47.098;15.446;2024-01-27T12:19:20;19.50;50.10
7163;DHT22;3623;47.098;15.446;2024-01-27T12:21:47;19.60;49.30
7163;DHT22;3623;47.098;15.446;2024-01-27T12:24:17;19.70;50.40
7163;DHT22;3623;47.098;15.446;2024-01-27T12:26:45;19.30;48.90
7163;DHT22;3623;47.098;15.446;2024-01-27T12:29:12;19.40;49.40
7163;DHT22;3623;47.098;15.446;2024-01-27T12:31:39;18.90;48.30
7163;DHT22;3623;47.098;15.446;2024-01-27T12:34:07;18.30;49.20
7163;DHT22;3623;47.098;15.446;2024-01-27T12:36:40;17.80;48.70
7163;DHT22;3623;47.098;15.446;2024-01-27T12:39:08;18.20;49.30
7163;DHT22;3623;47.098;15.446;2024-01-27T12:41:37;17.90;49.00
7163;DHT22;3623;47.098;15.446;2024-01-27T12:44:05;18.70;49.00
7163;DHT22;3623;47.098;15.446;2024-01-27T12:46:32;19.60;48.30
7163;DHT22;3623;47.098;15.446;2024-01-27T12:49:00;19.10;49.60
7163;DHT22;3623;47.098;15.446;2024-01-27T12:51:27;18.90;48.00
7163;DHT22;3623;47.098;15.446;2024-01-27T12:53:54;19.30;48.80
7163;DHT22;3623;47.098;15.446;2024-01-27T12:56:21;19.20;47.80
7163;DHT22;3623;47.098;15.446;2024-01-27T12:58:50;18.60;47.20
7163;DHT22;3623;47.098;15.446;2024-01-27T13:01:17;19.30;48.90
7163;DHT22;3623;47.098;15.446;2024-01-27T13:03:44;19.30;47.30
7163;DHT22;3623;47.098;15.446;2024-01-27T13:06:12;19.30;47.50
7163;DHT22;3623;47.098;15.446;2024-01-27T13:08:39;19.10;47.70
7163;DHT22;3623;47.098;15.446;2024-01-27T13:11:07;17.70;47.70
7163;DHT22;3623;47.098;15.446;2024-01-27T13:13:34;16.70;48.30
7163;DHT22;3623;47.098;15.446;2024-01-27T13:16:03;17.00;48.50
7163;DHT22;3623;47.098;15.446;2024-01-27T13:18:30;16.60;47.80
7163;DHT22;3623;47.098;15.446;2024-01-27T13:20:57;16.10;48.50
7163;DHT22;3623;47.098;15.446;2024-01-27T13:23:24;15.50;49.40
7163;DHT22;3623;47.098;15.446;2024-01-27T13:25:51;15.10;49.90
7163;DHT22;3623;47.098;15.446;2024-01-27T13:28:19;14.50;50.20
7163;DHT22;3623;47.098;15.446;2024-01-27T13:30:46;14.30;50.40
7163;DHT22;3623;47.098;15.446;2024-01-27T13:33:16;13.70;50.20
7163;DHT22;3623;47.098;15.446;2024-01-27T13:35:43;13.20;51.00
7163;DHT22;3623;47.098;15.446;2024-01-27T13:38:12;12.50;50.90
7163;DHT22;3623;47.098;15.446;2024-01-27T13:40:40;12.20;51.60
7163;DHT22;3623;47.098;15.446;2024-01-27T13:43:07;11.80;51.10
7163;DHT22;3623;47.098;15.446;2024-01-27T13:45:34;11.70;51.50
7163;DHT22;3623;47.098;15.446;2024-01-27T13:48:02;11.30;51.70
7163;DHT22;3623;47.098;15.446;2024-01-27T13:50:30;11.20;51.90
7163;DHT22;3623;47.098;15.446;2024-01-27T13:52:57;11.20;53.20
7163;DHT22;3623;47.098;15.446;2024-01-27T13:55:25;10.90;52.20
7163;DHT22;3623;47.098;15.446;2024-01-27T13:57:53;10.90;53.00
7163;DHT22;3623;47.098;15.446;2024-01-27T14:00:20;10.80;53.40
7163;DHT22;3623;47.098;15.446;2024-01-27T14:02:47;10.90;53.10
7163;DHT22;3623;47.098;15.446;2024-01-27T14:05:14;10.70;52.50
7163;DHT22;3623;47.098;15.446;2024-01-27T14:07:44;10.80;53.50
7163;DHT22;3623;47.098;15.446;2024-01-27T14:10:11;10.70;53.10
7163;DHT22;3623;47.098;15.446;2024-01-27T14:12:38;10.50;53.00
7163;DHT22;3623;47.098;15.446;2024-01-27T14:15:06;10.30;53.50
7163;DHT22;3623;47.098;15.446;2024-01-27T14:17:34;10.10;53.30
7163;DHT22;3623;47.098;15.446;2024-01-27T14:20:03;10.00;52.60
7163;DHT22;3623;47.098;15.446;2024-01-27T14:22:30;10.10;53.70
7163;DHT22;3623;47.098;15.446;2024-01-27T14:24:59;10.00;53.70
7163;DHT22;3623;47.098;15.446;2024-01-27T14:27:26;9.70;54.70
7163;DHT22;3623;47.098;15.446;2024-01-27T14:29:53;9.90;54.90
7163;DHT22;3623;47.098;15.446;2024-01-27T14:32:21;9.70;54.80
7163;DHT22;3623;47.098;15.446;2024-01-27T14:34:49;9.80;55.20
7163;DHT22;3623;47.098;15.446;2024-01-27T14:37:16;9.70;54.70
7163;DHT22;3623;47.098;15.446;2024-01-27T14:39:43;9.70;55.10
7163;DHT22;3623;47.098;15.446;2024-01-27T14:42:13;9.60;55.40
7163;DHT22;3623;47.098;15.446;2024-01-27T14:44:43;9.50;55.30
7163;DHT22;3623;47.098;15.446;2024-01-27T14:47:11;9.60;55.80
7163;DHT22;3623;47.098;15.446;2024-01-27T14:49:39;9.60;55.20
7163;DHT22;3623;47.098;15.446;2024-01-27T14:52:06;9.50;55.70
7163;DHT22;3623;47.098;15.446;2024-01-27T14:54:33;9.50;56.30
7163;DHT22;3623;47.098;15.446;2024-01-27T14:57:03;9.50;55.50
7163;DHT22;3623;47.098;15.446;2024-01-27T14:59:31;9.40;55.70
7163;DHT22;3623;47.098;15.446;2024-01-27T15:01:59;9.30;56.40
7163;DHT22;3623;47.098;15.446;2024-01-27T15:04:26;9.10;56.30
7163;DHT22;3623;47.098;15.446;2024-01-27T15:06:54;9.20;56.50
7163;DHT22;3623;47.098;15.446;2024-01-27T15:09:21;9.10;56.00
7163;DHT22;3623;47.098;15.446;2024-01-27T15:11:48;9.20;56.00
7163;DHT22;3623;47.098;15.446;2024-01-27T15:14:16;9.10;56.40
7163;DHT22;3623;47.098;15.446;2024-01-27T15:16:45;9.20;55.60
7163;DHT22;3623;47.098;15.446;2024-01-27T15:19:13;9.10;55.70
7163;DHT22;3623;47.098;15.446;2024-01-27T15:21:40;9.10;56.10
7163;DHT22;3623;47.098;15.446;2024-01-27T15:24:07;8.80;56.00
7163;DHT22;3623;47.098;15.446;2024-01-27T15:26:35;8.90;56.00
7163;DHT22;3623;47.098;15.446;2024-01-27T15:29:02;8.80;56.50
7163;DHT22;3623;47.098;15.446;2024-01-27T15:31:29;8.80;55.90
7163;DHT22;3623;47.098;15.446;2024-01-27T15:33:58;8.80;57.80
7163;DHT22;3623;47.098;15.446;2024-01-27T15:36:25;8.50;56.10
7163;DHT22;3623;47.098;15.446;2024-01-27T15:38:53;8.60;56.60
7163;DHT22;3623;47.098;15.446;2024-01-27T15:41:20;8.50;56.30
7163;DHT22;3623;47.098;15.446;2024-01-27T15:43:47;8.50;57.00
7163;DHT22;3623;47.098;15.446;2024-01-27T15:46:15;8.40;57.20
7163;DHT22;3623;47.098;15.446;2024-01-27T15:48:42;8.30;57.50
7163;DHT22;3623;47.098;15.446;2024-01-27T15:51:11;8.20;58.10
7163;DHT22;3623;47.098;15.446;2024-01-27T15:53:38;8.00;57.00
7163;DHT22;3623;47.098;15.446;2024-01-27T15:56:05;8.10;57.70
7163;DHT22;3623;47.098;15.446;2024-01-27T15:58:33;7.90;57.00
7163;DHT22;3623;47.098;15.446;2024-01-27T16:01:00;8.00;57.40